Soro, Denmark
Current Conditions -  °F | °C
As of 11:20 AM on Thursday 29 Jan 2015 (Local Time) from EKRK Reporting Station
Broken Clouds Broken Clouds  
Wind Chill: 24°   Ceiling: 900
Heat Index: 34°   Visibility: 6mi
Dew Point: 34°   Wind: 15mph
Humidity: 100%   Direction: 200°SSW
Pressure: 28.91"   Gusts: NA
Location:  55.43°N, 11.56°E
Report Text: EKRK 291020Z AUTO 20013KT 170V230 9999NDV FEW007/// BKN009///BKN011/// 01/01 Q0979 R99/320365 R99/390351
Loading
Personal Weather Stations






























Interactive Weather Map New forecast layout! Learn more

10-Day Weather Forecast

Advertisements
Track Severe Weather on mobile